Galveston Bay Weather

Located on Galveston Bay in Seabrook, Texas

Our Weather Station is currently down due to a lightning strike.  We are working to get the site back online.  Please check back soon.  (webcam is now operational)

Weather Links

Aviation Weather Information
GALVESTON, TX
Metar
KGLS 261852Z 18009KT 3SM HZ BKN015 OVC035 27/24 A2959 RMK AO2 SLP019 T02670239

18:52 UTC

Wind: 180° 9kt

Visibility: 3 SM

Sky: BKN 1500 ft

Temp: 27 deg C / 80.6 deg F

Dewpoint: 24 deg C / 75.2 deg F

Pressure: 29.59 inHg

TAF
KGLS 261723Z 2618/2718 20008KT 4SM HZ BKN011 OVC022 FM270100 30022KT P6SM SCT045 FM270900 04013KT P6SM SKC FM271600 10011KT P6SM SKC
Pireps (8)
IAH UA /OV 10E OF IAH/TM 1859/FL020/TP B739/SK BKN020-TOPS060/WX HZ
KGLS UA /OV 10NM ESE GLS/TM 1856/FL008/TP A139/SK UNK/WX 2-3SM HZ
CXO UA /OV DWH360010/TM 1843/FL025/TP C172/SK BASES FL025 BKN
ARP UAL1528 2957N 09520W 1821 F080 TB MOD RM A319 OV IAH CLB SFC-FL080
BPT UA /OV SBI180015 /TM 1809 /FL210 /TP E145 /TB MOD /RM FM ZHU AWC-WEB
IAH UA /OV IAH360012/TM 1800/FL072/TP B763/SK T072
IAH UA /OV BAYYY /TM 1753/FL190 /TP B737/TB MOD
IAH UA /OV WAPPL/TM 1750/FL190/TP E55P/TB MOD
Galveston Bay Weather Station © 2016